Flugplatz Meschede-Schüren (EDKM)

Hier findest Du alle Informationen zum Flugplatz Meschede-Schüren (EDKM).

Informationen für Piloten zum Flugplatz Meschede-Schüren

Hier findest Du alle relevanten Informationen, die Du als Pilot benötigst, um Meschede-Schüren anzufliegen.

Flugplatz: Meschede-Schüren ICAO-Code: EDKM
Frequenz Turm: 126.015 Mhz GAFOR Gebiet: 36
Frequenz Ground: 126.015 Mhz Mogas: nein
Platzrunde: N 2300 ft Landegebühr: -
Platzhöhe: - Sunrise: 03:59 Uhr UTC
Pisten: 04/22 - 700 m x 30 m, ASPH Sunset: 19:05 Uhr UTC

Mitglieder, die in Meschede-Schüren fliegen

Flugwetter am Flugplatz Meschede-Schüren

Die METAR Information stammen aus EDLP (43.45 km entfernt).

METAR Code:
2020/08/01 09:20
EDLP 010920Z 25004KT 210V310 CAVOK 29/13 Q1014

Flugschulen am Flugplatz Meschede-Schüren

Am Flugplatz Meschede-Schüren gibt es eine Flugschule.

Benachbarte Flugplätze und Flugschulen

Es gibt 24 weitere Flugplätze in einem Umkreis von 50 km um den Flugplatz Meschede-Schüren.

Jetzt anmelden

Passwort vergessen

Umfrage Archiv

Wären Rettungsgeräte keine Pflicht mehr, würdet Ihr Euer UL trotzdem mit einem ausstatten?

Ja
82.9 %
Nein
17.1 %
Stimmen: 251 | Diskussion
Anzeige: Roland Aircraft
Statistik Alle Mitglieder

Aktuell sind 62 Besucher online, davon 3 Mitglieder und 59 Gäste.


Mitglieder online:
Senecabbe  pocook  Naters 

Anzeige: VFR Sprechfunk Simulator


Anzeige: Pocket FMS